Spring Island, South Carolina
Current Conditions -  °F | °C
As of 7:50 AM on Thursday 18 Dec 2014 (Local Time) from KHXD Reporting Station
Broken Clouds Broken Clouds  
Wind Chill: 43°   Ceiling: 10000
Heat Index: 43°   Visibility: 10mi
Dew Point: 43°   Wind: 0mph
Humidity: 100%   Direction: NA
Pressure: 30.16"   Gusts: NA
Location:  32.3283°N, 80.8483°W
Report Text: KHXD 181250Z 00000KT 10SM BKN100 06/06 A3016
Loading
Personal Weather Stations






























Interactive Weather Map New forecast layout! Learn more

10-Day Weather Forecast

Advertisements
Track Severe Weather on mobile